Terminal Aerodrome Forecast
Issued by NWS

Home | Current Version | Previous Version | Text Only | Print | Product List | Glossary On
Versions: 1 2 3 4 5 6 7 8 9 10 11 12 13 14
853
FTUS43 KSGF 031721
TAFJLN
TAF
KJLN 031721Z 0318/0418 14010KT P6SM OVC050
     FM032200 13007KT 6SM -RA SCT025 OVC050
      TEMPO 0403/0407 5SM -RA BR SCT015 OVC025
     FM040800 12007KT 5SM -RA BR SCT010 OVC025
     FM041400 19005KT 6SM BR SCT012 OVC020=

USA.gov is the U.S. government's official web portal to all federal, state and local government web resources and services.